Terminal Aerodrome Forecast
Issued by NWS

Home | Current Version | Previous Version | Text Only | Print | Product List | Glossary On
Versions: 1 2 3 4 5 6 7 8 9 10 11 12
000
FTUS42 KTAE 201700
TAFABY
TAF
KABY 201720Z 2018/2118 02003KT P6SM SCT008 SCT020 OVC070
      TEMPO 2018/2022 BKN008
     FM210100 05005KT P6SM OVC020
     FM210800 05007KT P6SM OVC008=

USA.gov is the U.S. government's official web portal to all federal, state and local government web resources and services.